We konden geen weer-waarchuwingen ophalen. Ga rechtstreeks naar de Meteoalarm site : www.meteoalarm.eu en controleer daar .



Bezoek ook deze websites:

Template documentation
and downloads

And another site



METAR rapporten vliegvelden


Warning: A non-numeric value encountered in /home/w16454we/domains/weerstation-smeerebbe-vloerzegem.be/public_html/weather28/metar/metarDisplay.php on line 166

Warning: A non-numeric value encountered in /home/w16454we/domains/weerstation-smeerebbe-vloerzegem.be/public_html/weather28/metar/metarDisplay.php on line 166

Warning: A non-numeric value encountered in /home/w16454we/domains/weerstation-smeerebbe-vloerzegem.be/public_html/weather28/metar/metarDisplay.php on line 166
   
EHVK - Volkel Rnlafb, Netherlands
Afstand tot: ZW 18 km
Gewijzigd: 29-05-2023 07:55
Bewolking  
Bewolking  
   Wind: NNO 18.5 km/h
Wind: NNO 18.5 km/h
Temperatuur: 11°C
Dauwpunt: 7°C
Vochtigheid: 77%
Barometer: 1024 hPa
Bewolking: Bewolking
Zicht: meer dan 10 km
Bewolking: Gedeeltelijk bewolkt 31000 ft,
Bewolking 36000 ft
EHVK 290555Z AUTO 03010KT 360V060 9999 SCT310 OVC360 11/07 Q1024 BLU
EDLV - Niederrhein, Germany
Afstand tot: ZO 25 km
Gewijzigd: 29-05-2023 07:50
Helder  
Helder  
   Wind: NNO 11.1 km/h
Wind: NNO 11.1 km/h
Temperatuur: 11°C
Dauwpunt: 7°C
Vochtigheid: 77%
Barometer: 1024 hPa
Zicht: meer dan 10 km
Bewolking: Helder
EDLV 290550Z 03006KT 350V080 CAVOK 11/07 Q1024
EHDL - Deelen Rnlafb, Netherlands
Afstand tot: N 35 km
Gewijzigd: 29-05-2023 07:55
Helder  
Helder  
   Wind: varieert 22.2 km/h
Wind: varieert 22.2 km/h
Temperatuur: 10°C
Voelt als: 7°C
Dauwpunt: 6°C
Vochtigheid: 76%
Barometer: 1025 hPa
Bewolking: Helder
Zicht: meer dan 10 km
Bewolking: Helder
EHDL 290555Z AUTO VRB12KT 9999 NCD 10/06 Q1025 BLU
EHEH - Eindhoven Rnlafb, Netherlands
Afstand tot: ZW 48 km
Gewijzigd: 29-05-2023 07:55
Bewolking  
Bewolking  
   Wind: NO 24.1 km/h
Wind: NO 24.1 km/h
Temperatuur: 11°C
Dauwpunt: 7°C
Vochtigheid: 77%
Barometer: 1024 hPa
Bewolking: Bewolking
Zicht: meer dan 10 km
Bewolking: Bewolking 34000 ft
EHEH 290555Z AUTO 04013KT 350V070 9999 OVC340 11/07 Q1024 BLU NOSIG
EHGR - Gilze-Rijen Rnla, Netherlands
Afstand tot: WZW 70 km
Gewijzigd: 29-05-2023 07:55
Licht bewolkt  
Licht bewolkt  
   Wind: NO 22.2 km/h
Wind: NO 22.2 km/h
Temperatuur: 11°C
Dauwpunt: 7°C
Vochtigheid: 77%
Barometer: 1025 hPa
Bewolking: Licht bewolkt
Zicht: meer dan 10 km
Bewolking: Licht bewolkt 37000 ft
EHGR 290555Z AUTO 04012KT 340V100 9999 FEW370 11/07 Q1025 BLU
EBBL - Kleine-Brogel(Ba, Belgium
Afstand tot: ZZW 71 km
Gewijzigd: 29-05-2023 07:55
Helder  
Helder  
   Wind: NO 20.4 km/h
Wind: NO 20.4 km/h
Temperatuur: 11°C
Dauwpunt: 7°C
Vochtigheid: 77%
Barometer: 1024 hPa
Bewolking: Helder
Zicht: meer dan 10 km
Bewolking: Helder
EBBL 290555Z AUTO 04011KT 9999 NCD 11/07 Q1024 BLU

Script ontwikkeld door  Saratoga-weather.org Aangepast voor de template door  Weerstation Leuven

U vindt ons ook hier:

Het Weer Aktueel

UK Metoffice

WeatherCloud

Weather Underground

AWEKAS

HAMweather, WeatherForYou, PWS Weather

Apparatuur in gebruik:

Weerstation
Davis Vantage Vue

Weerprogramma
Meteobridge

Davis Vantage Vue

Meteobridge